sensor_id;sensor_type;location;lat;lon;timestamp;temperature;humidity
43561;DHT22;32305;46.410;17.394;2024-02-23T00:01:06;22.80;36.10
43561;DHT22;32305;46.410;17.394;2024-02-23T00:03:33;22.80;36.00
43561;DHT22;32305;46.410;17.394;2024-02-23T00:06:04;22.80;36.00
43561;DHT22;32305;46.410;17.394;2024-02-23T00:08:31;22.80;35.90
43561;DHT22;32305;46.410;17.394;2024-02-23T00:10:58;22.90;35.90
43561;DHT22;32305;46.410;17.394;2024-02-23T00:13:25;22.80;35.80
43561;DHT22;32305;46.410;17.394;2024-02-23T00:15:52;22.80;35.80
43561;DHT22;32305;46.410;17.394;2024-02-23T00:18:19;22.80;35.80
43561;DHT22;32305;46.410;17.394;2024-02-23T00:20:47;22.80;35.80
43561;DHT22;32305;46.410;17.394;2024-02-23T00:23:14;22.80;35.80
43561;DHT22;32305;46.410;17.394;2024-02-23T00:25:41;22.80;35.80
43561;DHT22;32305;46.410;17.394;2024-02-23T00:28:08;22.80;35.80
43561;DHT22;32305;46.410;17.394;2024-02-23T00:30:35;22.90;35.90
43561;DHT22;32305;46.410;17.394;2024-02-23T00:33:03;22.80;35.80
43561;DHT22;32305;46.410;17.394;2024-02-23T00:35:30;22.80;35.80
43561;DHT22;32305;46.410;17.394;2024-02-23T00:37:57;22.80;35.80
43561;DHT22;32305;46.410;17.394;2024-02-23T00:40:24;22.80;35.90
43561;DHT22;32305;46.410;17.394;2024-02-23T00:42:51;22.80;35.80
43561;DHT22;32305;46.410;17.394;2024-02-23T00:45:18;22.80;35.90
43561;DHT22;32305;46.410;17.394;2024-02-23T00:47:45;22.80;35.90
43561;DHT22;32305;46.410;17.394;2024-02-23T00:50:15;22.70;35.80
43561;DHT22;32305;46.410;17.394;2024-02-23T00:52:42;22.70;35.90
43561;DHT22;32305;46.410;17.394;2024-02-23T00:55:10;22.80;35.90
43561;DHT22;32305;46.410;17.394;2024-02-23T00:57:37;22.70;35.80
43561;DHT22;32305;46.410;17.394;2024-02-23T01:00:04;22.70;35.90
43561;DHT22;32305;46.410;17.394;2024-02-23T01:02:32;22.70;35.90
43561;DHT22;32305;46.410;17.394;2024-02-23T01:05:00;22.70;35.90
43561;DHT22;32305;46.410;17.394;2024-02-23T01:07:27;22.70;35.90
43561;DHT22;32305;46.410;17.394;2024-02-23T01:09:54;22.70;35.90
43561;DHT22;32305;46.410;17.394;2024-02-23T01:12:21;22.80;35.90
43561;DHT22;32305;46.410;17.394;2024-02-23T01:14:48;22.80;35.90
43561;DHT22;32305;46.410;17.394;2024-02-23T01:17:15;22.80;35.80
43561;DHT22;32305;46.410;17.394;2024-02-23T01:19:43;22.80;35.80
43561;DHT22;32305;46.410;17.394;2024-02-23T01:22:10;22.80;35.70
43561;DHT22;32305;46.410;17.394;2024-02-23T01:24:37;22.80;35.80
43561;DHT22;32305;46.410;17.394;2024-02-23T01:27:04;22.80;35.70
43561;DHT22;32305;46.410;17.394;2024-02-23T01:29:31;22.80;35.70
43561;DHT22;32305;46.410;17.394;2024-02-23T01:31:57;22.80;35.70
43561;DHT22;32305;46.410;17.394;2024-02-23T01:34:25;22.80;35.70
43561;DHT22;32305;46.410;17.394;2024-02-23T01:36:52;22.80;35.70
43561;DHT22;32305;46.410;17.394;2024-02-23T01:39:19;22.80;35.70
43561;DHT22;32305;46.410;17.394;2024-02-23T01:41:46;22.80;35.80
43561;DHT22;32305;46.410;17.394;2024-02-23T01:44:13;22.80;35.80
43561;DHT22;32305;46.410;17.394;2024-02-23T01:46:42;22.80;35.80
43561;DHT22;32305;46.410;17.394;2024-02-23T01:49:09;22.80;35.80
43561;DHT22;32305;46.410;17.394;2024-02-23T01:51:36;22.70;35.80
43561;DHT22;32305;46.410;17.394;2024-02-23T01:54:03;22.70;35.80
43561;DHT22;32305;46.410;17.394;2024-02-23T01:56:31;22.70;35.80
43561;DHT22;32305;46.410;17.394;2024-02-23T01:58:59;22.70;35.80
43561;DHT22;32305;46.410;17.394;2024-02-23T02:01:26;22.70;35.80
43561;DHT22;32305;46.410;17.394;2024-02-23T02:03:54;22.70;35.80
43561;DHT22;32305;46.410;17.394;2024-02-23T02:06:23;22.70;35.80
43561;DHT22;32305;46.410;17.394;2024-02-23T02:08:50;22.70;35.80
43561;DHT22;32305;46.410;17.394;2024-02-23T02:11:17;22.70;35.80
43561;DHT22;32305;46.410;17.394;2024-02-23T02:13:45;22.70;35.80
43561;DHT22;32305;46.410;17.394;2024-02-23T02:16:12;22.70;35.80
43561;DHT22;32305;46.410;17.394;2024-02-23T02:18:38;22.70;35.80
43561;DHT22;32305;46.410;17.394;2024-02-23T02:21:05;22.70;35.80
43561;DHT22;32305;46.410;17.394;2024-02-23T02:23:32;22.70;35.80
43561;DHT22;32305;46.410;17.394;2024-02-23T02:25:59;22.70;35.70
43561;DHT22;32305;46.410;17.394;2024-02-23T02:28:26;22.70;35.70
43561;DHT22;32305;46.410;17.394;2024-02-23T02:30:53;22.70;35.70
43561;DHT22;32305;46.410;17.394;2024-02-23T02:33:21;22.70;35.70
43561;DHT22;32305;46.410;17.394;2024-02-23T02:35:48;22.70;35.70
43561;DHT22;32305;46.410;17.394;2024-02-23T02:38:17;22.70;35.70
43561;DHT22;32305;46.410;17.394;2024-02-23T02:40:44;22.70;35.70
43561;DHT22;32305;46.410;17.394;2024-02-23T02:43:11;22.70;35.70
43561;DHT22;32305;46.410;17.394;2024-02-23T02:45:38;22.70;35.70
43561;DHT22;32305;46.410;17.394;2024-02-23T02:48:05;22.70;35.70
43561;DHT22;32305;46.410;17.394;2024-02-23T02:50:32;22.70;35.70
43561;DHT22;32305;46.410;17.394;2024-02-23T02:52:59;22.70;35.80
43561;DHT22;32305;46.410;17.394;2024-02-23T02:55:26;22.70;35.70
43561;DHT22;32305;46.410;17.394;2024-02-23T02:57:53;22.70;35.70
43561;DHT22;32305;46.410;17.394;2024-02-23T03:00:20;22.70;35.70
43561;DHT22;32305;46.410;17.394;2024-02-23T03:02:47;22.70;35.80
43561;DHT22;32305;46.410;17.394;2024-02-23T03:05:14;22.70;35.80
43561;DHT22;32305;46.410;17.394;2024-02-23T03:07:41;22.70;35.80
43561;DHT22;32305;46.410;17.394;2024-02-23T03:10:08;22.60;35.70
43561;DHT22;32305;46.410;17.394;2024-02-23T03:12:35;22.60;35.70
43561;DHT22;32305;46.410;17.394;2024-02-23T03:15:02;22.70;35.80
43561;DHT22;32305;46.410;17.394;2024-02-23T03:17:29;22.70;35.80
43561;DHT22;32305;46.410;17.394;2024-02-23T03:19:56;22.60;35.70
43561;DHT22;32305;46.410;17.394;2024-02-23T03:22:24;22.60;35.80
43561;DHT22;32305;46.410;17.394;2024-02-23T03:24:51;22.60;35.80
43561;DHT22;32305;46.410;17.394;2024-02-23T03:27:19;22.70;36.40
43561;DHT22;32305;46.410;17.394;2024-02-23T03:29:46;22.70;35.80
43561;DHT22;32305;46.410;17.394;2024-02-23T03:32:13;22.70;35.80
43561;DHT22;32305;46.410;17.394;2024-02-23T03:34:40;22.70;35.70
43561;DHT22;32305;46.410;17.394;2024-02-23T03:37:07;22.70;35.70
43561;DHT22;32305;46.410;17.394;2024-02-23T03:39:34;22.70;35.70
43561;DHT22;32305;46.410;17.394;2024-02-23T03:42:01;22.70;35.70
43561;DHT22;32305;46.410;17.394;2024-02-23T03:44:28;22.70;35.70
43561;DHT22;32305;46.410;17.394;2024-02-23T03:46:55;22.70;35.70
43561;DHT22;32305;46.410;17.394;2024-02-23T03:49:22;22.70;35.70
43561;DHT22;32305;46.410;17.394;2024-02-23T03:51:49;22.70;35.70
43561;DHT22;32305;46.410;17.394;2024-02-23T03:54:16;22.60;35.70
43561;DHT22;32305;46.410;17.394;2024-02-23T03:56:43;22.60;35.70
43561;DHT22;32305;46.410;17.394;2024-02-23T03:59:10;22.60;35.70
43561;DHT22;32305;46.410;17.394;2024-02-23T04:01:37;22.60;35.70
43561;DHT22;32305;46.410;17.394;2024-02-23T04:04:05;22.60;35.70
43561;DHT22;32305;46.410;17.394;2024-02-23T04:06:33;22.60;35.70
43561;DHT22;32305;46.410;17.394;2024-02-23T04:09:00;22.60;35.70
43561;DHT22;32305;46.410;17.394;2024-02-23T04:11:27;22.60;35.80
43561;DHT22;32305;46.410;17.394;2024-02-23T04:13:54;22.60;35.80
43561;DHT22;32305;46.410;17.394;2024-02-23T04:16:24;22.60;35.80
43561;DHT22;32305;46.410;17.394;2024-02-23T04:18:52;22.60;35.80
43561;DHT22;32305;46.410;17.394;2024-02-23T04:21:19;22.60;35.80
43561;DHT22;32305;46.410;17.394;2024-02-23T04:23:46;22.60;35.80
43561;DHT22;32305;46.410;17.394;2024-02-23T04:26:13;22.60;35.80
43561;DHT22;32305;46.410;17.394;2024-02-23T04:28:40;22.60;35.80
43561;DHT22;32305;46.410;17.394;2024-02-23T04:31:08;22.60;35.80
43561;DHT22;32305;46.410;17.394;2024-02-23T04:33:35;22.60;35.80
43561;DHT22;32305;46.410;17.394;2024-02-23T04:36:03;22.60;35.80
43561;DHT22;32305;46.410;17.394;2024-02-23T04:38:30;22.60;35.80
43561;DHT22;32305;46.410;17.394;2024-02-23T04:40:57;22.60;35.70
43561;DHT22;32305;46.410;17.394;2024-02-23T04:43:24;22.60;35.60
43561;DHT22;32305;46.410;17.394;2024-02-23T04:45:51;22.60;35.60
43561;DHT22;32305;46.410;17.394;2024-02-23T04:48:18;22.60;35.50
43561;DHT22;32305;46.410;17.394;2024-02-23T04:50:45;22.60;35.40
43561;DHT22;32305;46.410;17.394;2024-02-23T04:53:12;22.70;36.00
43561;DHT22;32305;46.410;17.394;2024-02-23T04:55:39;22.70;35.40
43561;DHT22;32305;46.410;17.394;2024-02-23T04:58:07;22.70;35.30
43561;DHT22;32305;46.410;17.394;2024-02-23T05:00:34;22.70;35.30
43561;DHT22;32305;46.410;17.394;2024-02-23T05:03:01;22.70;35.30
43561;DHT22;32305;46.410;17.394;2024-02-23T05:05:32;22.70;35.30
43561;DHT22;32305;46.410;17.394;2024-02-23T05:07:59;22.70;35.30
43561;DHT22;32305;46.410;17.394;2024-02-23T05:10:26;22.70;35.30
43561;DHT22;32305;46.410;17.394;2024-02-23T05:12:53;22.70;35.30
43561;DHT22;32305;46.410;17.394;2024-02-23T05:15:20;22.70;35.30
43561;DHT22;32305;46.410;17.394;2024-02-23T05:17:47;22.70;35.20
43561;DHT22;32305;46.410;17.394;2024-02-23T05:20:14;22.70;35.20
43561;DHT22;32305;46.410;17.394;2024-02-23T05:22:42;22.70;35.30
43561;DHT22;32305;46.410;17.394;2024-02-23T05:25:09;22.70;35.20
43561;DHT22;32305;46.410;17.394;2024-02-23T05:27:35;22.70;35.30
43561;DHT22;32305;46.410;17.394;2024-02-23T05:30:02;22.70;35.20
43561;DHT22;32305;46.410;17.394;2024-02-23T05:32:29;22.70;35.30
43561;DHT22;32305;46.410;17.394;2024-02-23T05:34:56;22.70;35.30
43561;DHT22;32305;46.410;17.394;2024-02-23T05:37:24;22.70;35.30
43561;DHT22;32305;46.410;17.394;2024-02-23T05:39:51;22.70;35.40
43561;DHT22;32305;46.410;17.394;2024-02-23T05:42:18;22.70;35.40
43561;DHT22;32305;46.410;17.394;2024-02-23T05:44:45;22.70;35.40
43561;DHT22;32305;46.410;17.394;2024-02-23T05:47:12;22.70;35.40
43561;DHT22;32305;46.410;17.394;2024-02-23T05:49:40;22.70;35.40
43561;DHT22;32305;46.410;17.394;2024-02-23T05:52:07;22.70;35.40
43561;DHT22;32305;46.410;17.394;2024-02-23T05:54:34;22.70;35.40
43561;DHT22;32305;46.410;17.394;2024-02-23T05:57:01;22.70;35.40
43561;DHT22;32305;46.410;17.394;2024-02-23T05:59:29;22.80;35.30
43561;DHT22;32305;46.410;17.394;2024-02-23T06:01:56;22.80;35.30
43561;DHT22;32305;46.410;17.394;2024-02-23T06:04:24;22.80;35.20
43561;DHT22;32305;46.410;17.394;2024-02-23T06:06:51;22.80;35.20
43561;DHT22;32305;46.410;17.394;2024-02-23T06:09:18;22.80;35.20
43561;DHT22;32305;46.410;17.394;2024-02-23T06:11:46;22.80;35.20
43561;DHT22;32305;46.410;17.394;2024-02-23T06:14:13;22.80;35.10
43561;DHT22;32305;46.410;17.394;2024-02-23T06:16:40;22.80;35.10
43561;DHT22;32305;46.410;17.394;2024-02-23T06:19:08;22.90;35.30
43561;DHT22;32305;46.410;17.394;2024-02-23T06:21:35;22.90;35.30
43561;DHT22;32305;46.410;17.394;2024-02-23T06:24:02;22.90;35.40
43561;DHT22;32305;46.410;17.394;2024-02-23T06:26:29;22.90;35.40
43561;DHT22;32305;46.410;17.394;2024-02-23T06:28:56;23.00;35.40
43561;DHT22;32305;46.410;17.394;2024-02-23T06:31:23;23.00;35.40
43561;DHT22;32305;46.410;17.394;2024-02-23T06:33:50;23.00;35.40
43561;DHT22;32305;46.410;17.394;2024-02-23T06:36:18;23.10;35.60
43561;DHT22;32305;46.410;17.394;2024-02-23T06:38:46;23.10;35.90
43561;DHT22;32305;46.410;17.394;2024-02-23T06:41:13;23.10;36.10
43561;DHT22;32305;46.410;17.394;2024-02-23T06:43:40;23.10;36.30
43561;DHT22;32305;46.410;17.394;2024-02-23T06:46:07;23.10;36.20
43561;DHT22;32305;46.410;17.394;2024-02-23T06:48:35;23.20;36.20
43561;DHT22;32305;46.410;17.394;2024-02-23T06:51:03;23.30;36.20
43561;DHT22;32305;46.410;17.394;2024-02-23T06:53:30;23.30;36.20
43561;DHT22;32305;46.410;17.394;2024-02-23T06:55:57;23.30;36.10
43561;DHT22;32305;46.410;17.394;2024-02-23T06:58:26;23.30;36.00
43561;DHT22;32305;46.410;17.394;2024-02-23T07:00:53;23.40;36.00
43561;DHT22;32305;46.410;17.394;2024-02-23T07:03:20;23.40;36.00
43561;DHT22;32305;46.410;17.394;2024-02-23T07:05:47;23.40;36.30
43561;DHT22;32305;46.410;17.394;2024-02-23T07:08:16;23.40;36.30
43561;DHT22;32305;46.410;17.394;2024-02-23T07:10:44;23.50;36.40
43561;DHT22;32305;46.410;17.394;2024-02-23T07:13:11;23.50;36.40
43561;DHT22;32305;46.410;17.394;2024-02-23T07:15:37;23.60;36.50
43561;DHT22;32305;46.410;17.394;2024-02-23T07:18:05;23.60;36.50
43561;DHT22;32305;46.410;17.394;2024-02-23T07:20:32;23.60;36.40
43561;DHT22;32305;46.410;17.394;2024-02-23T07:22:59;23.60;36.30
43561;DHT22;32305;46.410;17.394;2024-02-23T07:25:26;23.70;36.40
43561;DHT22;32305;46.410;17.394;2024-02-23T07:27:53;23.70;36.50
43561;DHT22;32305;46.410;17.394;2024-02-23T07:30:20;23.70;36.40
43561;DHT22;32305;46.410;17.394;2024-02-23T07:32:47;23.80;36.30
43561;DHT22;32305;46.410;17.394;2024-02-23T07:35:19;23.80;36.00
43561;DHT22;32305;46.410;17.394;2024-02-23T07:37:46;23.80;35.70
43561;DHT22;32305;46.410;17.394;2024-02-23T07:40:13;23.80;35.70
43561;DHT22;32305;46.410;17.394;2024-02-23T07:42:44;23.80;35.80
43561;DHT22;32305;46.410;17.394;2024-02-23T07:45:12;23.80;35.80
43561;DHT22;32305;46.410;17.394;2024-02-23T07:47:39;23.90;35.80
43561;DHT22;32305;46.410;17.394;2024-02-23T07:50:06;23.90;35.80
43561;DHT22;32305;46.410;17.394;2024-02-23T07:52:34;23.90;35.90
43561;DHT22;32305;46.410;17.394;2024-02-23T07:55:01;23.90;35.90
43561;DHT22;32305;46.410;17.394;2024-02-23T07:57:32;23.90;35.90
43561;DHT22;32305;46.410;17.394;2024-02-23T07:59:59;24.00;36.00
43561;DHT22;32305;46.410;17.394;2024-02-23T08:02:27;24.00;35.90
43561;DHT22;32305;46.410;17.394;2024-02-23T08:04:54;24.00;35.90
43561;DHT22;32305;46.410;17.394;2024-02-23T08:07:21;24.10;35.90
43561;DHT22;32305;46.410;17.394;2024-02-23T08:09:49;24.00;36.00
43561;DHT22;32305;46.410;17.394;2024-02-23T08:12:16;24.10;35.90
43561;DHT22;32305;46.410;17.394;2024-02-23T08:14:43;24.10;35.90
43561;DHT22;32305;46.410;17.394;2024-02-23T08:17:12;24.10;35.80
43561;DHT22;32305;46.410;17.394;2024-02-23T08:19:39;24.10;35.80
43561;DHT22;32305;46.410;17.394;2024-02-23T08:22:06;24.10;35.80
43561;DHT22;32305;46.410;17.394;2024-02-23T08:24:33;24.10;35.70
43561;DHT22;32305;46.410;17.394;2024-02-23T08:27:01;24.10;35.70
43561;DHT22;32305;46.410;17.394;2024-02-23T08:29:29;24.10;35.70
43561;DHT22;32305;46.410;17.394;2024-02-23T08:31:56;24.10;35.80
43561;DHT22;32305;46.410;17.394;2024-02-23T08:34:23;24.10;36.00
43561;DHT22;32305;46.410;17.394;2024-02-23T08:36:51;24.10;36.10
43561;DHT22;32305;46.410;17.394;2024-02-23T08:39:18;24.20;36.10
43561;DHT22;32305;46.410;17.394;2024-02-23T08:41:47;24.20;36.00
43561;DHT22;32305;46.410;17.394;2024-02-23T08:44:14;24.20;35.90
43561;DHT22;32305;46.410;17.394;2024-02-23T08:46:41;24.20;35.80
43561;DHT22;32305;46.410;17.394;2024-02-23T08:49:11;24.20;35.80
43561;DHT22;32305;46.410;17.394;2024-02-23T08:51:38;24.30;35.90
43561;DHT22;32305;46.410;17.394;2024-02-23T08:54:05;24.30;35.80
43561;DHT22;32305;46.410;17.394;2024-02-23T08:56:36;24.30;35.80
43561;DHT22;32305;46.410;17.394;2024-02-23T08:59:04;24.50;35.70
43561;DHT22;32305;46.410;17.394;2024-02-23T09:01:31;24.50;35.70
43561;DHT22;32305;46.410;17.394;2024-02-23T09:03:59;24.50;35.50
43561;DHT22;32305;46.410;17.394;2024-02-23T09:06:25;24.60;35.50
43561;DHT22;32305;46.410;17.394;2024-02-23T09:08:53;24.60;35.40
43561;DHT22;32305;46.410;17.394;2024-02-23T09:11:20;24.60;35.30
43561;DHT22;32305;46.410;17.394;2024-02-23T09:13:47;24.60;35.30
43561;DHT22;32305;46.410;17.394;2024-02-23T09:16:14;24.60;35.30
43561;DHT22;32305;46.410;17.394;2024-02-23T09:18:41;24.70;35.50
43561;DHT22;32305;46.410;17.394;2024-02-23T09:21:08;24.60;35.60
43561;DHT22;32305;46.410;17.394;2024-02-23T09:23:35;24.60;35.70
43561;DHT22;32305;46.410;17.394;2024-02-23T09:26:08;24.60;36.20
43561;DHT22;32305;46.410;17.394;2024-02-23T09:28:35;24.60;35.70
43561;DHT22;32305;46.410;17.394;2024-02-23T09:31:02;24.60;35.80
43561;DHT22;32305;46.410;17.394;2024-02-23T09:33:30;24.60;35.80
43561;DHT22;32305;46.410;17.394;2024-02-23T09:35:57;24.60;35.80
43561;DHT22;32305;46.410;17.394;2024-02-23T09:38:25;24.50;35.80
43561;DHT22;32305;46.410;17.394;2024-02-23T09:40:52;24.50;35.80
43561;DHT22;32305;46.410;17.394;2024-02-23T09:43:20;24.50;35.80
43561;DHT22;32305;46.410;17.394;2024-02-23T09:45:50;24.50;35.80
43561;DHT22;32305;46.410;17.394;2024-02-23T09:48:18;24.50;35.90
43561;DHT22;32305;46.410;17.394;2024-02-23T09:50:46;24.50;35.90
43561;DHT22;32305;46.410;17.394;2024-02-23T09:53:14;24.50;35.80
43561;DHT22;32305;46.410;17.394;2024-02-23T09:55:42;24.50;35.70
43561;DHT22;32305;46.410;17.394;2024-02-23T09:58:10;24.60;35.70
43561;DHT22;32305;46.410;17.394;2024-02-23T10:00:39;24.50;35.60
43561;DHT22;32305;46.410;17.394;2024-02-23T10:03:06;24.60;35.70
43561;DHT22;32305;46.410;17.394;2024-02-23T10:05:34;24.60;35.70
43561;DHT22;32305;46.410;17.394;2024-02-23T10:08:05;24.60;35.70
43561;DHT22;32305;46.410;17.394;2024-02-23T10:10:33;24.70;35.70
43561;DHT22;32305;46.410;17.394;2024-02-23T10:13:01;24.60;35.60
43561;DHT22;32305;46.410;17.394;2024-02-23T10:15:31;24.70;35.60
43561;DHT22;32305;46.410;17.394;2024-02-23T10:17:58;24.70;35.60
43561;DHT22;32305;46.410;17.394;2024-02-23T10:20:26;24.70;35.50
43561;DHT22;32305;46.410;17.394;2024-02-23T10:22:53;24.70;35.50
43561;DHT22;32305;46.410;17.394;2024-02-23T10:25:21;24.70;35.50
43561;DHT22;32305;46.410;17.394;2024-02-23T10:27:48;24.70;35.50
43561;DHT22;32305;46.410;17.394;2024-02-23T10:30:15;24.70;35.50
43561;DHT22;32305;46.410;17.394;2024-02-23T10:32:42;24.70;35.60
43561;DHT22;32305;46.410;17.394;2024-02-23T10:35:14;24.70;35.70
43561;DHT22;32305;46.410;17.394;2024-02-23T10:37:43;24.60;35.70
43561;DHT22;32305;46.410;17.394;2024-02-23T10:40:12;24.70;35.70
43561;DHT22;32305;46.410;17.394;2024-02-23T10:42:40;24.70;35.70
43561;DHT22;32305;46.410;17.394;2024-02-23T10:45:08;24.70;35.70
43561;DHT22;32305;46.410;17.394;2024-02-23T10:47:36;24.70;35.60
43561;DHT22;32305;46.410;17.394;2024-02-23T10:50:04;24.70;35.50
43561;DHT22;32305;46.410;17.394;2024-02-23T10:52:33;24.80;35.40
43561;DHT22;32305;46.410;17.394;2024-02-23T10:55:00;24.90;35.30
43561;DHT22;32305;46.410;17.394;2024-02-23T10:57:31;24.90;35.20
43561;DHT22;32305;46.410;17.394;2024-02-23T11:00:02;25.00;35.20
43561;DHT22;32305;46.410;17.394;2024-02-23T11:02:32;25.00;35.10
43561;DHT22;32305;46.410;17.394;2024-02-23T11:05:02;25.00;35.10
43561;DHT22;32305;46.410;17.394;2024-02-23T11:07:31;25.00;35.00
43561;DHT22;32305;46.410;17.394;2024-02-23T11:09:59;25.10;35.20
43561;DHT22;32305;46.410;17.394;2024-02-23T11:12:28;25.10;35.20
43561;DHT22;32305;46.410;17.394;2024-02-23T11:14:59;25.20;35.00
43561;DHT22;32305;46.410;17.394;2024-02-23T11:17:27;25.20;34.90
43561;DHT22;32305;46.410;17.394;2024-02-23T11:19:57;25.20;34.90
43561;DHT22;32305;46.410;17.394;2024-02-23T11:22:31;25.20;34.70
43561;DHT22;32305;46.410;17.394;2024-02-23T11:25:05;25.30;34.60
43561;DHT22;32305;46.410;17.394;2024-02-23T11:27:33;25.30;34.50
43561;DHT22;32305;46.410;17.394;2024-02-23T11:30:03;25.30;34.50
43561;DHT22;32305;46.410;17.394;2024-02-23T11:32:39;25.30;34.40
43561;DHT22;32305;46.410;17.394;2024-02-23T11:35:08;25.30;35.00
43561;DHT22;32305;46.410;17.394;2024-02-23T11:37:49;25.30;34.30
43561;DHT22;32305;46.410;17.394;2024-02-23T11:40:23;25.30;34.30
43561;DHT22;32305;46.410;17.394;2024-02-23T11:42:51;25.30;34.30
43561;DHT22;32305;46.410;17.394;2024-02-23T11:45:18;25.30;34.30
43561;DHT22;32305;46.410;17.394;2024-02-23T11:47:45;25.30;34.30
43561;DHT22;32305;46.410;17.394;2024-02-23T11:50:13;25.30;34.30
43561;DHT22;32305;46.410;17.394;2024-02-23T11:52:41;25.30;34.30
43561;DHT22;32305;46.410;17.394;2024-02-23T11:55:08;25.30;34.30
43561;DHT22;32305;46.410;17.394;2024-02-23T11:57:35;25.30;34.40
43561;DHT22;32305;46.410;17.394;2024-02-23T12:00:13;25.20;34.40
43561;DHT22;32305;46.410;17.394;2024-02-23T12:02:40;25.20;34.40
43561;DHT22;32305;46.410;17.394;2024-02-23T12:05:07;25.20;34.40
43561;DHT22;32305;46.410;17.394;2024-02-23T12:07:35;25.30;34.50
43561;DHT22;32305;46.410;17.394;2024-02-23T12:10:02;25.30;34.50
43561;DHT22;32305;46.410;17.394;2024-02-23T12:12:32;25.30;34.40
43561;DHT22;32305;46.410;17.394;2024-02-23T12:14:59;25.30;34.30
43561;DHT22;32305;46.410;17.394;2024-02-23T12:17:26;25.40;34.40
43561;DHT22;32305;46.410;17.394;2024-02-23T12:20:01;25.40;34.30
43561;DHT22;32305;46.410;17.394;2024-02-23T12:22:29;25.40;34.30
43561;DHT22;32305;46.410;17.394;2024-02-23T12:24:59;25.40;34.30
43561;DHT22;32305;46.410;17.394;2024-02-23T12:27:26;25.50;34.40
43561;DHT22;32305;46.410;17.394;2024-02-23T12:29:57;25.50;34.30
43561;DHT22;32305;46.410;17.394;2024-02-23T12:32:24;25.50;34.40
43561;DHT22;32305;46.410;17.394;2024-02-23T12:34:52;25.50;34.60
43561;DHT22;32305;46.410;17.394;2024-02-23T12:37:19;25.50;34.60
43561;DHT22;32305;46.410;17.394;2024-02-23T12:39:48;25.40;34.70
43561;DHT22;32305;46.410;17.394;2024-02-23T12:42:15;25.40;34.70
43561;DHT22;32305;46.410;17.394;2024-02-23T12:44:43;25.40;34.70
43561;DHT22;32305;46.410;17.394;2024-02-23T12:47:10;25.40;34.80
43561;DHT22;32305;46.410;17.394;2024-02-23T12:49:37;25.40;34.80
43561;DHT22;32305;46.410;17.394;2024-02-23T12:52:07;25.40;34.90
43561;DHT22;32305;46.410;17.394;2024-02-23T12:54:34;25.40;35.00
43561;DHT22;32305;46.410;17.394;2024-02-23T12:57:01;25.40;35.10
43561;DHT22;32305;46.410;17.394;2024-02-23T12:59:28;25.40;35.10
43561;DHT22;32305;46.410;17.394;2024-02-23T13:01:55;25.30;35.70
43561;DHT22;32305;46.410;17.394;2024-02-23T13:04:22;25.30;35.10
43561;DHT22;32305;46.410;17.394;2024-02-23T13:06:49;25.30;35.10
43561;DHT22;32305;46.410;17.394;2024-02-23T13:09:16;25.40;35.00
43561;DHT22;32305;46.410;17.394;2024-02-23T13:11:43;25.40;35.10
43561;DHT22;32305;46.410;17.394;2024-02-23T13:14:10;25.40;34.90
43561;DHT22;32305;46.410;17.394;2024-02-23T13:16:37;25.40;34.90
43561;DHT22;32305;46.410;17.394;2024-02-23T13:19:04;25.40;34.90
43561;DHT22;32305;46.410;17.394;2024-02-23T13:21:31;25.40;34.90
43561;DHT22;32305;46.410;17.394;2024-02-23T13:23:59;25.40;34.90
43561;DHT22;32305;46.410;17.394;2024-02-23T13:26:26;25.30;35.00
43561;DHT22;32305;46.410;17.394;2024-02-23T13:28:53;25.30;34.90
43561;DHT22;32305;46.410;17.394;2024-02-23T13:31:20;25.30;34.90
43561;DHT22;32305;46.410;17.394;2024-02-23T13:33:48;25.30;35.00
43561;DHT22;32305;46.410;17.394;2024-02-23T13:36:15;25.30;35.00
43561;DHT22;32305;46.410;17.394;2024-02-23T13:38:42;25.30;35.00
43561;DHT22;32305;46.410;17.394;2024-02-23T13:41:09;25.30;34.80
43561;DHT22;32305;46.410;17.394;2024-02-23T13:43:36;25.30;34.90
43561;DHT22;32305;46.410;17.394;2024-02-23T13:46:05;25.30;34.90
43561;DHT22;32305;46.410;17.394;2024-02-23T13:48:32;25.30;34.90
43561;DHT22;32305;46.410;17.394;2024-02-23T13:50:59;25.30;35.00
43561;DHT22;32305;46.410;17.394;2024-02-23T13:53:30;25.20;34.90
43561;DHT22;32305;46.410;17.394;2024-02-23T13:55:58;25.20;34.90
43561;DHT22;32305;46.410;17.394;2024-02-23T13:58:25;25.20;34.90
43561;DHT22;32305;46.410;17.394;2024-02-23T14:00:52;25.20;35.00
43561;DHT22;32305;46.410;17.394;2024-02-23T14:03:19;25.10;34.90
43561;DHT22;32305;46.410;17.394;2024-02-23T14:05:46;25.10;35.00
43561;DHT22;32305;46.410;17.394;2024-02-23T14:08:14;25.10;35.30
43561;DHT22;32305;46.410;17.394;2024-02-23T14:10:41;25.10;35.30
43561;DHT22;32305;46.410;17.394;2024-02-23T14:13:10;25.00;36.80
43561;DHT22;32305;46.410;17.394;2024-02-23T14:15:37;24.90;36.00
43561;DHT22;32305;46.410;17.394;2024-02-23T14:18:04;24.90;39.40
43561;DHT22;32305;46.410;17.394;2024-02-23T14:20:31;24.80;41.50
43561;DHT22;32305;46.410;17.394;2024-02-23T14:22:58;24.70;39.90
43561;DHT22;32305;46.410;17.394;2024-02-23T14:25:25;24.60;38.20
43561;DHT22;32305;46.410;17.394;2024-02-23T14:27:52;24.50;38.10
43561;DHT22;32305;46.410;17.394;2024-02-23T14:30:22;24.50;37.30
43561;DHT22;32305;46.410;17.394;2024-02-23T14:32:49;24.50;37.20
43561;DHT22;32305;46.410;17.394;2024-02-23T14:35:16;24.40;37.20
43561;DHT22;32305;46.410;17.394;2024-02-23T14:37:44;24.40;37.20
43561;DHT22;32305;46.410;17.394;2024-02-23T14:40:11;24.40;37.20
43561;DHT22;32305;46.410;17.394;2024-02-23T14:42:38;24.30;37.20
43561;DHT22;32305;46.410;17.394;2024-02-23T14:45:07;24.30;37.20
43561;DHT22;32305;46.410;17.394;2024-02-23T14:47:34;24.30;37.10
43561;DHT22;32305;46.410;17.394;2024-02-23T14:50:11;24.30;37.10
43561;DHT22;32305;46.410;17.394;2024-02-23T14:52:38;24.20;37.00
43561;DHT22;32305;46.410;17.394;2024-02-23T14:55:06;24.20;37.10
43561;DHT22;32305;46.410;17.394;2024-02-23T14:57:33;24.20;37.10
43561;DHT22;32305;46.410;17.394;2024-02-23T14:59:59;24.20;37.10
43561;DHT22;32305;46.410;17.394;2024-02-23T15:02:26;24.20;37.20
43561;DHT22;32305;46.410;17.394;2024-02-23T15:04:53;24.10;37.10
43561;DHT22;32305;46.410;17.394;2024-02-23T15:07:20;24.10;37.10
43561;DHT22;32305;46.410;17.394;2024-02-23T15:09:47;24.10;37.20
43561;DHT22;32305;46.410;17.394;2024-02-23T15:12:14;24.10;37.20
43561;DHT22;32305;46.410;17.394;2024-02-23T15:14:41;24.10;37.20
43561;DHT22;32305;46.410;17.394;2024-02-23T15:17:08;24.10;37.30